Time;durP1;ratioP1;P1;durP2;ratioP2;P2;SDS_P1;SDS_P2;PMS_P1;PMS_P2;Temp;Humidity;BMP_temperature;BMP_pressure;BME280_temperature;BME280_humidity;BME280_pressure;Samples;Min_cycle;Max_cycle;Signal;HPM_P1;HPM_P2
2022/09/27 00:01:05;;;;;;;7.73;7.53;;;11.40;51.20;;;;;;4991208;28;20468;-43
2022/09/27 00:03:31;;;;;;;7.17;6.97;;;11.40;50.00;;;;;;4991695;28;20643;-42
2022/09/27 00:06:24;;;;;;;7.73;7.43;;;11.40;50.60;;;;;;4991609;28;20574;-39
2022/09/27 00:08:49;;;;;;;7.67;7.47;;;11.40;49.90;;;;;;4983845;28;20189;-40
2022/09/27 00:11:42;;;;;;;7.20;7.00;;;11.40;50.90;;;;;;5009785;28;20443;-41
2022/09/27 00:14:10;;;;;;;7.97;7.77;;;11.40;50.70;;;;;;4987786;28;20247;-40
2022/09/27 00:16:38;;;;;;;7.20;7.00;;;11.40;49.70;;;;;;4991283;28;20423;-40
2022/09/27 00:19:25;;;;;;;7.73;7.53;;;11.30;51.00;;;;;;4991679;28;20515;-41
2022/09/27 00:21:51;;;;;;;7.63;7.33;;;11.30;51.40;;;;;;4990802;28;20968;-40
2022/09/27 00:24:20;;;;;;;7.27;7.07;;;11.40;51.50;;;;;;4991124;28;20431;-41
2022/09/27 00:26:46;;;;;;;7.40;7.10;;;11.40;51.10;;;;;;4991871;28;20184;-41
2022/09/27 00:29:13;;;;;;;7.00;6.70;;;11.40;51.20;;;;;;4991426;28;20906;-40
2022/09/27 00:31:39;;;;;;;7.10;6.80;;;11.40;51.10;;;;;;4991993;28;20424;-41
2022/09/27 00:34:06;;;;;;;7.40;7.17;;;11.50;52.50;;;;;;4990873;28;20408;-46
2022/09/27 00:36:32;;;;;;;6.57;6.37;;;11.50;51.50;;;;;;4992541;28;20437;-43
2022/09/27 00:38:59;;;;;;;7.53;7.33;;;11.50;51.70;;;;;;4992104;28;20408;-47
2022/09/27 00:41:35;;;;;;;7.10;6.80;;;11.50;51.10;;;;;;4992037;28;20479;-44
2022/09/27 00:44:57;;;;;;;7.10;6.90;;;11.50;51.10;;;;;;4991700;28;20851;-42
2022/09/27 00:47:29;;;;;;;7.33;7.13;;;11.50;51.00;;;;;;5024789;28;20419;-39
2022/09/27 00:50:28;;;;;;;7.50;7.20;;;11.40;51.00;;;;;;4991248;28;20474;-42
2022/09/27 00:53:00;;;;;;;7.17;6.90;;;11.40;51.90;;;;;;4976625;28;20494;-42
2022/09/27 00:55:32;;;;;;;6.60;6.40;;;11.40;51.90;;;;;;4991334;28;20412;-44
2022/09/27 00:57:58;;;;;;;7.10;6.90;;;11.40;51.50;;;;;;4991023;28;20408;-48
2022/09/27 01:00:24;;;;;;;6.80;6.60;;;11.40;52.10;;;;;;4992469;28;20419;-48
2022/09/27 01:02:53;;;;;;;7.27;7.07;;;11.40;52.60;;;;;;4993165;28;21082;-47
2022/09/27 01:05:22;;;;;;;7.10;6.80;;;11.40;51.60;;;;;;4992820;28;20177;-50
2022/09/27 01:07:47;;;;;;;6.77;6.57;;;11.40;51.60;;;;;;4992339;28;20425;-47
2022/09/27 01:10:15;;;;;;;6.30;6.00;;;11.40;51.70;;;;;;4993307;28;20423;-51
2022/09/27 01:13:19;;;;;;;6.47;6.17;;;11.50;52.80;;;;;;4992740;28;20216;-47
2022/09/27 01:16:17;;;;;;;6.50;6.30;;;11.50;52.70;;;;;;4953273;28;20512;-47
2022/09/27 01:19:28;;;;;;;6.77;6.57;;;11.50;52.40;;;;;;4992995;28;20792;-47
2022/09/27 01:21:57;;;;;;;7.57;7.10;;;11.50;52.00;;;;;;5009765;28;20464;-51
2022/09/27 01:24:28;;;;;;;7.00;6.80;;;11.60;52.00;;;;;;4992249;28;20440;-49
2022/09/27 01:27:12;;;;;;;6.87;6.67;;;11.60;52.40;;;;;;4994798;28;21007;-41
2022/09/27 01:30:15;;;;;;;7.83;7.43;;;11.60;51.70;;;;;;4994694;28;20474;-42
2022/09/27 01:32:53;;;;;;;7.20;7.00;;;11.60;52.50;;;;;;5027194;28;20510;-46
2022/09/27 01:35:57;;;;;;;7.23;6.97;;;11.70;51.70;;;;;;4994800;28;20427;-41
2022/09/27 01:38:34;;;;;;;7.87;7.67;;;11.70;52.10;;;;;;4964335;28;20431;-43
2022/09/27 01:41:21;;;;;;;7.47;7.27;;;11.70;51.60;;;;;;4994503;28;20468;-40
2022/09/27 01:44:02;;;;;;;7.30;7.10;;;11.70;52.40;;;;;;4994646;28;20436;-42
2022/09/27 01:46:39;;;;;;;6.87;6.67;;;11.70;52.90;;;;;;4994332;28;20416;-42
2022/09/27 01:49:11;;;;;;;7.50;7.30;;;11.70;52.10;;;;;;4995275;28;20424;-53
2022/09/27 01:51:46;;;;;;;7.57;7.37;;;11.70;52.70;;;;;;5013427;28;20424;-50
2022/09/27 01:54:16;;;;;;;8.17;7.87;;;11.80;52.10;;;;;;4994042;28;20514;-44
2022/09/27 01:56:52;;;;;;;7.60;7.30;;;11.70;52.20;;;;;;4994278;28;20416;-40
2022/09/27 01:59:29;;;;;;;8.13;7.93;;;11.70;52.20;;;;;;4994728;28;20520;-40
2022/09/27 02:01:58;;;;;;;7.60;7.40;;;11.70;52.20;;;;;;4994352;28;20467;-43
2022/09/27 02:04:30;;;;;;;7.90;7.70;;;11.70;52.70;;;;;;4994066;28;20763;-42
2022/09/27 02:07:01;;;;;;;7.70;7.50;;;11.70;52.90;;;;;;4993500;28;20928;-43
2022/09/27 02:09:35;;;;;;;7.43;7.23;;;11.80;52.70;;;;;;4993487;28;20408;-41
2022/09/27 02:12:05;;;;;;;7.23;7.03;;;11.80;53.00;;;;;;4993558;28;20797;-43
2022/09/27 02:14:54;;;;;;;7.73;7.53;;;11.80;53.60;;;;;;4994631;28;20413;-45
2022/09/27 02:17:53;;;;;;;7.47;7.27;;;11.80;53.00;;;;;;4994296;28;20439;-42
2022/09/27 02:20:22;;;;;;;7.47;7.27;;;11.90;53.90;;;;;;4993659;28;20515;-42
2022/09/27 02:22:53;;;;;;;7.73;7.50;;;11.90;54.60;;;;;;4993687;28;20517;-44
2022/09/27 02:25:34;;;;;;;7.50;7.30;;;11.80;55.90;;;;;;4993556;28;20498;-42
2022/09/27 02:28:11;;;;;;;7.53;7.13;;;11.80;55.80;;;;;;4994122;28;20459;-48
2022/09/27 02:30:36;;;;;;;7.30;7.00;;;11.70;56.80;;;;;;5013043;28;20466;-47
2022/09/27 02:33:02;;;;;;;7.23;7.03;;;11.80;55.70;;;;;;4995290;28;20819;-48
2022/09/27 02:35:32;;;;;;;7.80;7.50;;;11.80;55.80;;;;;;4994891;28;20177;-49
2022/09/27 02:37:58;;;;;;;8.00;7.80;;;11.80;54.20;;;;;;4993771;28;20215;-49
2022/09/27 02:40:29;;;;;;;7.60;7.40;;;11.70;54.10;;;;;;4995042;28;20421;-47
2022/09/27 02:42:56;;;;;;;8.40;8.20;;;11.60;53.50;;;;;;4994403;28;20806;-47
2022/09/27 02:45:23;;;;;;;7.63;7.43;;;11.50;51.60;;;;;;4995292;28;20506;-50
2022/09/27 02:48:09;;;;;;;8.30;8.10;;;11.40;51.70;;;;;;4994865;28;20851;-48
2022/09/27 02:51:13;;;;;;;8.13;7.93;;;11.50;51.10;;;;;;4994333;28;20420;-47
2022/09/27 02:54:03;;;;;;;8.00;7.73;;;11.40;50.60;;;;;;4955384;28;20432;-47
2022/09/27 02:56:41;;;;;;;8.40;8.10;;;11.50;51.00;;;;;;4995022;28;20420;-49
2022/09/27 02:59:29;;;;;;;9.00;8.80;;;11.50;50.30;;;;;;4994754;28;20499;-53
2022/09/27 03:02:21;;;;;;;8.70;8.50;;;11.50;48.70;;;;;;4994683;28;20932;-54
2022/09/27 03:04:58;;;;;;;8.60;8.20;;;11.50;47.60;;;;;;4994804;28;20421;-50
2022/09/27 03:07:25;;;;;;;9.03;8.73;;;11.40;47.80;;;;;;4994735;28;20929;-50
2022/09/27 03:09:54;;;;;;;8.83;8.63;;;11.30;48.70;;;;;;4994312;28;20423;-50
2022/09/27 03:12:24;;;;;;;8.70;8.40;;;11.40;48.20;;;;;;4994442;28;20474;-41
2022/09/27 03:14:57;;;;;;;10.30;9.40;;;11.50;48.20;;;;;;4993172;28;20420;-42
2022/09/27 03:17:23;;;;;;;9.80;9.50;;;11.40;47.30;;;;;;4992692;28;20427;-45
2022/09/27 03:19:49;;;;;;;9.33;9.03;;;11.40;47.00;;;;;;4993067;28;20462;-48
2022/09/27 03:22:15;;;;;;;10.03;9.60;;;11.30;48.00;;;;;;4992180;28;20567;-46
2022/09/27 03:24:41;;;;;;;9.10;8.80;;;11.30;48.70;;;;;;4992378;28;20444;-48
2022/09/27 03:27:07;;;;;;;9.47;9.17;;;11.30;48.50;;;;;;4992852;28;20185;-45
2022/09/27 03:29:33;;;;;;;9.77;9.37;;;11.20;48.50;;;;;;4993812;28;20182;-50
2022/09/27 03:31:59;;;;;;;9.57;9.27;;;11.10;48.20;;;;;;4994126;28;20425;-49
2022/09/27 03:34:24;;;;;;;10.37;9.70;;;11.10;48.80;;;;;;5011838;28;20420;-46
2022/09/27 03:36:50;;;;;;;9.77;9.47;;;11.10;49.50;;;;;;4994247;28;20273;-51
2022/09/27 03:39:16;;;;;;;9.40;9.10;;;11.10;49.70;;;;;;4994009;28;20834;-51
2022/09/27 03:41:41;;;;;;;9.00;8.70;;;11.10;49.70;;;;;;4994089;28;20201;-46
2022/09/27 03:44:07;;;;;;;9.83;9.53;;;11.20;49.60;;;;;;4993603;28;20177;-50
2022/09/27 03:46:33;;;;;;;10.00;9.60;;;11.20;49.00;;;;;;4993696;28;20235;-52
2022/09/27 03:48:58;;;;;;;9.53;9.17;;;11.10;48.50;;;;;;4993543;28;20181;-50
2022/09/27 03:51:24;;;;;;;9.97;9.47;;;11.00;48.60;;;;;;4993984;28;20235;-50
2022/09/27 03:53:50;;;;;;;9.50;9.20;;;11.00;49.50;;;;;;4993324;28;20182;-41
2022/09/27 03:56:16;;;;;;;8.77;8.47;;;10.90;49.10;;;;;;4992438;28;20272;-43
2022/09/27 03:58:41;;;;;;;9.33;9.00;;;11.00;50.00;;;;;;4992641;28;20181;-43
2022/09/27 04:01:07;;;;;;;9.50;9.00;;;10.90;49.70;;;;;;4991890;28;21033;-42
2022/09/27 04:03:34;;;;;;;10.17;9.57;;;10.90;50.40;;;;;;4992808;28;20601;-40
2022/09/27 04:06:01;;;;;;;8.73;8.43;;;11.00;51.20;;;;;;4992705;28;20425;-41
2022/09/27 04:08:26;;;;;;;9.20;8.90;;;11.00;50.30;;;;;;5011304;28;20432;-46
2022/09/27 04:10:52;;;;;;;9.60;9.20;;;11.10;50.80;;;;;;4993290;28;20451;-47
2022/09/27 04:13:17;;;;;;;9.80;9.40;;;11.20;50.70;;;;;;4993440;28;20634;-48
2022/09/27 04:15:43;;;;;;;9.87;9.57;;;11.20;50.80;;;;;;4993420;28;20228;-46
2022/09/27 04:18:09;;;;;;;11.10;10.37;;;11.30;50.90;;;;;;4992945;28;20217;-46
2022/09/27 04:20:36;;;;;;;9.30;9.00;;;11.30;51.10;;;;;;4993253;28;20435;-49
2022/09/27 04:23:02;;;;;;;10.47;9.97;;;11.20;49.80;;;;;;4993177;28;20678;-51
2022/09/27 04:25:28;;;;;;;10.57;9.87;;;11.20;49.80;;;;;;4993016;28;20432;-49
2022/09/27 04:27:54;;;;;;;10.40;9.80;;;11.30;49.40;;;;;;4993171;28;20740;-46
2022/09/27 04:30:21;;;;;;;9.33;9.03;;;11.40;49.90;;;;;;4993622;28;20173;-50
2022/09/27 04:32:47;;;;;;;10.73;10.23;;;11.20;48.00;;;;;;4993123;28;20431;-51
2022/09/27 04:41:21;;;;;;;9.83;9.30;;;11.10;49.80;;;;;;5011019;28;20618;-47
2022/09/27 04:43:47;;;;;;;9.63;9.23;;;11.20;50.90;;;;;;4993353;28;20495;-48
2022/09/27 04:46:12;;;;;;;9.77;9.37;;;11.30;49.40;;;;;;4993154;28;20471;-52
2022/09/27 04:48:40;;;;;;;9.73;9.13;;;11.40;49.40;;;;;;4993145;28;20748;-47
2022/09/27 04:51:06;;;;;;;9.60;9.20;;;11.30;49.00;;;;;;4992766;28;20216;-51
2022/09/27 04:53:32;;;;;;;9.30;8.90;;;11.40;50.20;;;;;;4993155;28;20412;-46
2022/09/27 04:56:01;;;;;;;9.33;8.70;;;11.40;49.80;;;;;;4992659;28;20416;-49
2022/09/27 04:58:28;;;;;;;8.50;8.10;;;11.40;51.00;;;;;;4992780;28;20428;-50
2022/09/27 05:00:54;;;;;;;8.97;8.57;;;11.40;49.40;;;;;;4994037;28;20519;-40
2022/09/27 05:03:21;;;;;;;10.10;9.50;;;11.50;49.80;;;;;;4979085;28;21061;-40
2022/09/27 05:05:46;;;;;;;9.80;9.40;;;11.50;49.60;;;;;;4996573;28;20201;-43
2022/09/27 05:08:12;;;;;;;10.33;9.83;;;11.60;49.30;;;;;;4994469;28;20455;-40
2022/09/27 05:10:38;;;;;;;9.77;9.37;;;11.50;48.80;;;;;;4995620;28;20360;-42
2022/09/27 05:13:04;;;;;;;10.03;9.33;;;11.50;50.10;;;;;;4995077;28;20213;-44
2022/09/27 05:15:29;;;;;;;9.40;8.80;;;11.30;51.30;;;;;;4994844;28;20684;-46
2022/09/27 05:17:55;;;;;;;9.70;9.20;;;11.30;51.40;;;;;;5013099;28;20195;-40
2022/09/27 05:20:21;;;;;;;9.53;9.13;;;11.30;52.50;;;;;;4995811;28;20264;-40
2022/09/27 05:22:46;;;;;;;10.57;9.77;;;11.20;52.00;;;;;;4995191;28;20584;-43
2022/09/27 05:25:12;;;;;;;9.67;9.20;;;11.20;52.40;;;;;;4995006;28;20448;-42
2022/09/27 05:27:38;;;;;;;9.90;8.97;;;11.10;53.10;;;;;;4995502;28;20300;-44
2022/09/27 05:30:06;;;;;;;9.87;9.07;;;11.30;52.50;;;;;;4995282;28;20173;-40
2022/09/27 05:32:33;;;;;;;9.70;9.30;;;11.20;52.50;;;;;;4994371;28;20185;-40
2022/09/27 05:34:59;;;;;;;9.80;9.10;;;11.20;52.50;;;;;;4996955;28;20424;-50
2022/09/27 05:37:25;;;;;;;9.87;9.43;;;11.30;52.50;;;;;;4997043;28;20423;-47
2022/09/27 05:39:50;;;;;;;9.50;9.00;;;11.30;51.90;;;;;;4996089;28;20423;-50
2022/09/27 05:42:17;;;;;;;9.10;8.80;;;11.30;51.60;;;;;;4996254;28;20832;-49
2022/09/27 05:44:45;;;;;;;9.33;8.90;;;11.30;51.30;;;;;;4996431;28;20188;-53
2022/09/27 05:47:11;;;;;;;9.67;9.17;;;11.40;50.90;;;;;;4996525;28;20773;-50
2022/09/27 05:49:39;;;;;;;8.83;8.43;;;11.50;50.80;;;;;;4995128;28;20423;-43
2022/09/27 05:52:05;;;;;;;9.17;8.67;;;11.40;50.30;;;;;;4994079;28;20271;-42
2022/09/27 05:54:30;;;;;;;9.70;9.30;;;11.30;49.70;;;;;;4993948;28;20963;-40
2022/09/27 05:56:59;;;;;;;8.90;8.50;;;11.30;51.60;;;;;;5012134;28;20185;-46
2022/09/27 05:59:26;;;;;;;9.70;9.17;;;11.30;52.00;;;;;;4994331;28;20220;-41
2022/09/27 06:01:52;;;;;;;9.20;8.90;;;11.40;49.90;;;;;;4994105;28;20452;-41
2022/09/27 06:04:21;;;;;;;9.60;9.20;;;11.30;50.20;;;;;;4994580;28;20409;-40
2022/09/27 06:06:48;;;;;;;9.07;8.73;;;11.20;50.50;;;;;;4994751;28;20416;-41
2022/09/27 06:09:15;;;;;;;8.80;8.50;;;11.10;50.40;;;;;;4994195;28;20815;-45
2022/09/27 06:11:44;;;;;;;9.80;9.30;;;11.20;52.00;;;;;;4993552;28;20527;-43
2022/09/27 06:14:11;;;;;;;8.97;8.57;;;11.20;51.90;;;;;;4993718;28;20425;-41
2022/09/27 06:16:36;;;;;;;9.40;9.00;;;11.30;52.30;;;;;;4994047;28;20424;-41
2022/09/27 06:19:03;;;;;;;9.27;8.60;;;11.30;51.10;;;;;;4994100;28;20467;-43
2022/09/27 06:21:30;;;;;;;9.13;8.73;;;11.40;51.90;;;;;;4993548;28;20278;-45
2022/09/27 06:23:58;;;;;;;8.80;8.40;;;11.30;51.60;;;;;;4994683;28;20489;-47
2022/09/27 06:26:26;;;;;;;9.30;8.80;;;11.20;52.20;;;;;;4995323;28;20436;-52
2022/09/27 06:28:52;;;;;;;9.13;8.83;;;11.20;52.50;;;;;;4995446;28;20443;-48
2022/09/27 06:31:17;;;;;;;8.90;8.40;;;11.20;51.80;;;;;;4995341;28;20989;-47
2022/09/27 06:33:44;;;;;;;9.97;9.57;;;11.20;50.90;;;;;;4995132;28;20416;-48
2022/09/27 06:36:09;;;;;;;8.83;8.53;;;11.20;51.70;;;;;;4995853;28;20546;-48
2022/09/27 06:38:35;;;;;;;8.43;8.10;;;11.20;50.50;;;;;;4995646;28;20416;-50
2022/09/27 06:41:02;;;;;;;8.30;8.00;;;11.20;51.40;;;;;;4995070;28;20193;-53
2022/09/27 06:43:29;;;;;;;7.83;7.57;;;11.30;51.20;;;;;;5012186;28;20178;-49
2022/09/27 06:45:55;;;;;;;8.67;8.37;;;11.30;50.10;;;;;;4995290;28;20815;-48
2022/09/27 06:48:21;;;;;;;9.23;8.90;;;11.40;50.60;;;;;;4994263;28;20467;-51
2022/09/27 06:50:47;;;;;;;8.37;8.07;;;11.30;50.10;;;;;;4994951;28;20178;-48
2022/09/27 06:53:15;;;;;;;8.33;8.03;;;11.40;50.40;;;;;;4995318;28;20408;-50
2022/09/27 06:55:41;;;;;;;9.27;8.97;;;11.40;49.80;;;;;;4994856;28;20408;-49
2022/09/27 07:00:53;;;;;;;8.60;8.30;;;11.50;49.30;;;;;;5012692;28;20423;-52
2022/09/27 07:03:22;;;;;;;8.83;8.43;;;11.40;47.50;;;;;;4994626;28;20417;-50
2022/09/27 07:05:58;;;;;;;8.70;8.50;;;11.40;47.50;;;;;;4994344;28;20231;-51
2022/09/27 07:09:14;;;;;;;8.83;8.53;;;11.30;47.50;;;;;;4994285;28;20416;-53
2022/09/27 07:11:42;;;;;;;8.33;8.13;;;11.40;46.90;;;;;;5027939;28;21001;-49
2022/09/27 07:14:09;;;;;;;9.30;9.00;;;11.50;47.70;;;;;;4994529;28;20416;-50
2022/09/27 07:16:35;;;;;;;8.30;8.10;;;11.30;46.50;;;;;;4993927;28;20423;-51
2022/09/27 07:19:01;;;;;;;8.10;7.80;;;11.30;46.30;;;;;;4994047;28;20412;-47
2022/09/27 07:21:26;;;;;;;8.77;8.53;;;11.30;46.80;;;;;;4994611;28;20764;-48
2022/09/27 07:23:52;;;;;;;9.00;8.70;;;11.30;47.70;;;;;;4993755;28;20169;-47
2022/09/27 07:26:18;;;;;;;8.50;8.20;;;11.30;47.30;;;;;;4993764;28;20197;-40
2022/09/27 07:28:44;;;;;;;8.90;8.50;;;11.30;47.40;;;;;;4992601;28;20741;-44
2022/09/27 07:31:11;;;;;;;9.13;8.73;;;11.30;48.50;;;;;;4993069;28;20416;-44
2022/09/27 07:33:38;;;;;;;8.67;8.37;;;11.30;48.90;;;;;;4992138;28;20404;-42
2022/09/27 07:36:08;;;;;;;8.37;8.17;;;11.40;49.40;;;;;;4992643;28;20499;-48
2022/09/27 07:38:35;;;;;;;8.93;8.43;;;11.40;47.90;;;;;;5011306;28;20798;-50
2022/09/27 07:41:12;;;;;;;9.07;8.77;;;11.40;48.20;;;;;;4993342;28;20463;-50
2022/09/27 07:43:38;;;;;;;9.40;9.10;;;11.40;47.70;;;;;;4994073;28;20419;-51
2022/09/27 07:46:05;;;;;;;9.10;8.80;;;11.30;47.30;;;;;;4993783;28;20495;-49
2022/09/27 07:48:30;;;;;;;9.67;9.30;;;11.30;48.00;;;;;;4994037;28;21000;-47
2022/09/27 07:50:56;;;;;;;8.80;8.60;;;11.30;47.80;;;;;;4993660;28;20416;-47
2022/09/27 07:53:23;;;;;;;9.27;8.97;;;11.20;48.00;;;;;;4993652;28;20173;-47
2022/09/27 07:55:52;;;;;;;10.03;9.73;;;11.30;46.70;;;;;;4994153;28;20177;-47
2022/09/27 07:58:18;;;;;;;9.40;9.10;;;11.30;47.70;;;;;;4993659;28;20993;-47
2022/09/27 08:00:44;;;;;;;9.57;9.33;;;11.20;47.30;;;;;;4993485;28;20425;-49
2022/09/27 08:03:14;;;;;;;10.20;9.83;;;11.20;46.10;;;;;;4993282;28;20478;-48
2022/09/27 08:05:40;;;;;;;10.30;9.97;;;11.20;46.00;;;;;;4993665;28;20209;-48
2022/09/27 08:11:28;;;;;;;9.17;8.87;;;11.30;44.90;;;;;;5009921;28;20438;-40
2022/09/27 08:13:55;;;;;;;9.53;9.23;;;11.30;44.60;;;;;;4993329;28;20788;-48
2022/09/27 08:16:21;;;;;;;9.47;9.17;;;11.30;46.30;;;;;;4977621;28;20606;-47
2022/09/27 08:18:47;;;;;;;10.33;9.93;;;11.40;45.00;;;;;;4993556;28;20414;-47
2022/09/27 08:21:12;;;;;;;9.90;9.50;;;11.30;43.20;;;;;;4993402;28;20208;-50
2022/09/27 08:23:38;;;;;;;9.47;9.17;;;11.50;43.60;;;;;;4993034;28;20634;-47
2022/09/27 08:26:04;;;;;;;9.63;9.33;;;11.40;44.50;;;;;;4993225;28;20189;-48
2022/09/27 08:28:30;;;;;;;9.90;9.60;;;11.40;44.50;;;;;;4993128;28;20244;-47
2022/09/27 08:30:58;;;;;;;10.40;10.00;;;11.40;44.00;;;;;;4992926;28;20354;-48
2022/09/27 08:33:24;;;;;;;11.00;10.60;;;11.50;45.50;;;;;;4993576;28;20412;-49
2022/09/27 08:35:50;;;;;;;14.73;13.97;;;11.60;44.30;;;;;;4992247;28;20444;-52
2022/09/27 08:38:16;;;;;;;10.13;9.80;;;11.60;43.70;;;;;;4993294;28;20928;-48
2022/09/27 08:40:47;;;;;;;10.80;10.40;;;11.70;41.70;;;;;;4993332;28;20555;-48
2022/09/27 08:43:22;;;;;;;10.70;10.30;;;11.60;42.00;;;;;;4993249;28;20205;-49
2022/09/27 08:46:00;;;;;;;9.73;9.33;;;11.70;42.10;;;;;;4993243;28;20416;-49
2022/09/27 08:48:27;;;;;;;10.30;9.80;;;11.70;42.00;;;;;;4993135;28;20412;-47
2022/09/27 08:50:54;;;;;;;10.00;9.70;;;11.70;41.80;;;;;;4992849;28;20751;-48
2022/09/27 08:53:26;;;;;;;10.20;9.90;;;11.70;40.20;;;;;;4992813;28;20515;-50
2022/09/27 08:56:02;;;;;;;10.20;9.80;;;11.80;41.10;;;;;;4992913;28;20996;-48
2022/09/27 08:58:31;;;;;;;9.53;9.20;;;11.80;41.10;;;;;;4993021;28;20428;-49
2022/09/27 09:00:59;;;;;;;10.00;9.57;;;11.80;41.80;;;;;;4992537;28;20431;-49
2022/09/27 09:03:31;;;;;;;10.27;9.97;;;11.70;42.50;;;;;;4992965;28;20444;-50
2022/09/27 09:06:22;;;;;;;9.33;8.90;;;11.80;41.10;;;;;;4993096;28;20444;-50
2022/09/27 09:09:26;;;;;;;9.13;8.73;;;11.70;42.80;;;;;;4992817;28;20709;-48
2022/09/27 09:15:16;;;;;;;8.97;8.77;;;11.50;42.90;;;;;;5010802;28;20776;-49
2022/09/27 09:18:00;;;;;;;10.03;9.73;;;11.70;43.10;;;;;;4992780;28;20566;-51
2022/09/27 09:20:52;;;;;;;9.33;8.93;;;11.80;43.20;;;;;;4992597;28;20408;-47
2022/09/27 09:23:36;;;;;;;9.20;8.83;;;11.80;42.90;;;;;;4992875;28;21011;-49
2022/09/27 09:26:19;;;;;;;9.37;9.07;;;11.90;41.70;;;;;;4992509;28;20800;-47
2022/09/27 09:28:57;;;;;;;9.63;9.33;;;12.10;40.80;;;;;;4992468;28;20787;-48
2022/09/27 09:31:29;;;;;;;10.77;10.17;;;12.00;40.30;;;;;;4992536;28;20506;-50
2022/09/27 09:34:14;;;;;;;10.30;9.93;;;12.00;38.90;;;;;;4992688;28;20940;-49
2022/09/27 09:37:11;;;;;;;11.00;10.60;;;12.00;38.20;;;;;;4991976;28;20522;-53
2022/09/27 09:39:43;;;;;;;10.23;9.73;;;12.10;36.80;;;;;;4972213;28;20424;-49
2022/09/27 09:42:38;;;;;;;9.87;9.57;;;12.00;36.60;;;;;;4992485;28;20505;-50
2022/09/27 09:45:15;;;;;;;9.73;9.40;;;12.10;36.40;;;;;;4982056;28;20420;-50
2022/09/27 09:47:47;;;;;;;10.03;9.63;;;12.10;35.00;;;;;;4995933;28;20423;-46
2022/09/27 09:50:28;;;;;;;9.60;9.30;;;12.20;35.20;;;;;;4995884;28;20472;-50
2022/09/27 09:52:58;;;;;;;9.30;9.00;;;12.40;33.60;;;;;;4995772;28;20416;-49
2022/09/27 09:55:30;;;;;;;10.03;9.63;;;12.50;34.20;;;;;;4995685;28;20902;-49
2022/09/27 09:58:22;;;;;;;8.87;8.47;;;12.60;33.10;;;;;;4995670;28;20428;-47
2022/09/27 10:00:52;;;;;;;9.20;8.90;;;12.80;34.00;;;;;;4966115;28;20824;-48
2022/09/27 10:03:19;;;;;;;10.43;10.00;;;12.90;32.00;;;;;;4995763;28;20439;-50
2022/09/27 10:05:45;;;;;;;9.30;9.00;;;13.00;32.10;;;;;;4994981;28;20944;-53
2022/09/27 10:08:23;;;;;;;10.07;9.67;;;12.80;30.80;;;;;;4995257;28;20427;-47
2022/09/27 10:10:48;;;;;;;10.27;9.77;;;12.80;29.20;;;;;;4995475;28;20426;-50
2022/09/27 10:13:17;;;;;;;9.90;9.50;;;12.80;29.80;;;;;;4995848;28;20511;-51
2022/09/27 10:15:58;;;;;;;10.47;9.97;;;13.00;28.90;;;;;;4995372;28;20182;-48
2022/09/27 10:18:25;;;;;;;10.27;9.77;;;13.10;29.60;;;;;;4995316;28;20428;-51
2022/09/27 10:20:55;;;;;;;10.77;10.07;;;13.20;28.70;;;;;;4995712;28;20478;-50
2022/09/27 10:23:24;;;;;;;10.40;9.90;;;13.20;27.40;;;;;;4995556;28;21006;-48
2022/09/27 10:26:03;;;;;;;10.30;9.90;;;13.20;28.10;;;;;;4995399;28;20534;-49
2022/09/27 10:28:42;;;;;;;10.67;9.70;;;13.20;28.40;;;;;;4995050;28;20498;-51
2022/09/27 10:31:11;;;;;;;9.97;9.57;;;13.00;28.60;;;;;;4995083;28;20424;-48
2022/09/27 10:33:50;;;;;;;10.30;9.90;;;13.10;29.70;;;;;;4995475;28;20417;-46
2022/09/27 10:36:28;;;;;;;9.60;9.30;;;13.10;29.60;;;;;;4994962;28;20419;-50
2022/09/27 10:38:57;;;;;;;10.30;9.80;;;13.10;29.10;;;;;;4979613;28;20482;-50
2022/09/27 10:41:23;;;;;;;9.70;9.40;;;13.00;29.60;;;;;;4995265;28;20526;-51
2022/09/27 10:43:48;;;;;;;9.70;9.13;;;12.90;29.50;;;;;;4994537;28;20421;-49
2022/09/27 10:46:31;;;;;;;9.53;9.23;;;13.00;29.70;;;;;;4994734;28;20174;-47
2022/09/27 10:49:19;;;;;;;10.13;9.77;;;13.00;30.10;;;;;;4994507;28;20184;-47
2022/09/27 10:51:48;;;;;;;9.50;9.20;;;13.10;29.40;;;;;;4994753;28;20440;-52
2022/09/27 10:54:31;;;;;;;9.73;9.40;;;13.10;28.40;;;;;;4994888;28;20420;-48
2022/09/27 10:57:00;;;;;;;9.50;9.17;;;13.10;28.40;;;;;;4994261;28;20435;-49
2022/09/27 10:59:29;;;;;;;9.77;9.27;;;13.20;28.90;;;;;;4994149;28;20427;-51
2022/09/27 11:01:57;;;;;;;8.50;8.20;;;13.40;28.50;;;;;;4994285;28;20471;-48
2022/09/27 11:04:31;;;;;;;8.87;8.57;;;13.50;28.40;;;;;;4994015;28;20784;-48
2022/09/27 11:07:18;;;;;;;9.23;8.83;;;13.60;28.20;;;;;;4994185;28;20482;-50
2022/09/27 11:09:53;;;;;;;8.63;8.23;;;13.60;28.90;;;;;;4994450;28;20420;-49
2022/09/27 11:12:21;;;;;;;9.07;8.67;;;13.50;28.30;;;;;;4994488;28;20510;-50
2022/09/27 11:14:56;;;;;;;9.30;8.90;;;13.60;28.40;;;;;;4994126;28;20419;-48
2022/09/27 11:17:31;;;;;;;8.30;8.00;;;13.50;27.90;;;;;;4994475;28;20513;-48
2022/09/27 11:20:04;;;;;;;9.40;9.10;;;13.40;28.10;;;;;;4994319;28;20435;-46
2022/09/27 11:22:54;;;;;;;8.97;8.60;;;13.30;27.70;;;;;;4994085;28;20652;-52
2022/09/27 11:25:40;;;;;;;9.33;9.03;;;13.20;27.30;;;;;;4994345;28;20932;-50
2022/09/27 11:28:27;;;;;;;9.70;9.00;;;13.20;28.20;;;;;;4994273;28;20740;-52
2022/09/27 11:31:20;;;;;;;8.70;8.40;;;13.30;28.00;;;;;;4993998;28;20831;-51
2022/09/27 11:33:58;;;;;;;8.50;8.30;;;13.30;27.80;;;;;;4993992;28;20913;-47
2022/09/27 11:36:32;;;;;;;8.90;8.60;;;13.20;27.80;;;;;;5011568;28;20835;-46
2022/09/27 11:39:06;;;;;;;8.93;8.53;;;13.20;27.60;;;;;;4993863;28;20419;-49
2022/09/27 11:41:43;;;;;;;8.30;8.00;;;13.20;27.60;;;;;;4993770;28;20460;-46
2022/09/27 11:44:40;;;;;;;9.57;9.17;;;13.20;28.10;;;;;;4993853;28;20416;-47
2022/09/27 11:47:19;;;;;;;9.10;8.70;;;13.20;28.30;;;;;;5026421;28;20784;-46
2022/09/27 11:50:06;;;;;;;8.00;7.50;;;13.30;28.30;;;;;;4993843;28;20412;-49
2022/09/27 11:52:58;;;;;;;8.40;8.00;;;13.30;28.50;;;;;;4993725;28;20446;-48
2022/09/27 11:56:25;;;;;;;7.97;7.77;;;13.30;27.80;;;;;;4993314;28;20424;-46
2022/09/27 11:59:43;;;;;;;8.20;7.93;;;13.30;28.20;;;;;;4915618;29;20793;-48
2022/09/27 12:06:07;;;;;;;7.83;7.63;;;13.50;28.50;;;;;;4931980;29;20424;-49
2022/09/27 12:08:35;;;;;;;7.30;7.10;;;13.50;28.90;;;;;;5026739;28;20463;-46
2022/09/27 12:11:29;;;;;;;8.00;7.80;;;13.50;26.70;;;;;;4992253;28;20405;-42
2022/09/27 12:14:01;;;;;;;8.67;8.47;;;13.40;27.30;;;;;;5024057;28;20415;-42
2022/09/27 12:16:27;;;;;;;8.10;7.90;;;13.20;28.20;;;;;;4991796;28;20420;-41
2022/09/27 12:18:54;;;;;;;8.77;8.23;;;12.90;29.90;;;;;;4991152;28;20420;-47
2022/09/27 12:21:20;;;;;;;8.70;8.40;;;12.80;31.30;;;;;;4990770;28;20521;-45
2022/09/27 12:23:54;;;;;;;9.30;8.90;;;12.60;33.30;;;;;;4991016;28;20476;-48
2022/09/27 12:26:24;;;;;;;9.33;9.03;;;12.40;34.50;;;;;;4990699;28;20444;-45
2022/09/27 12:28:57;;;;;;;9.20;8.90;;;12.10;36.30;;;;;;4991035;28;20412;-45
2022/09/27 12:31:47;;;;;;;8.73;8.43;;;12.00;37.80;;;;;;4990642;28;20486;-46
2022/09/27 12:34:27;;;;;;;8.40;8.20;;;11.90;39.70;;;;;;4990844;28;20892;-58
2022/09/27 12:37:01;;;;;;;9.00;8.80;;;11.80;39.10;;;;;;4991292;28;20442;-57
2022/09/27 12:39:55;;;;;;;8.50;8.20;;;11.70;40.20;;;;;;5009526;28;20416;-55
2022/09/27 12:42:29;;;;;;;8.93;8.60;;;11.70;40.50;;;;;;4991263;28;20505;-57
2022/09/27 12:44:55;;;;;;;8.77;8.50;;;11.80;40.40;;;;;;4991585;28;20404;-56
2022/09/27 12:47:30;;;;;;;9.20;8.90;;;11.80;40.40;;;;;;4991397;28;20417;-57
2022/09/27 12:50:20;;;;;;;8.60;8.30;;;11.80;41.80;;;;;;4990718;28;20764;-57
2022/09/27 12:52:53;;;;;;;8.43;8.17;;;11.80;41.70;;;;;;4991519;28;20416;-57
2022/09/27 12:55:25;;;;;;;8.23;8.03;;;11.90;41.60;;;;;;4991334;28;20432;-56
2022/09/27 12:58:09;;;;;;;8.70;8.50;;;12.00;41.90;;;;;;4991381;28;20417;-58
2022/09/27 13:00:50;;;;;;;8.20;8.00;;;12.10;41.40;;;;;;4990797;28;20506;-55
2022/09/27 13:03:34;;;;;;;8.33;8.03;;;12.10;41.40;;;;;;4991646;28;20467;-55
2022/09/27 13:06:20;;;;;;;8.47;8.27;;;12.20;41.70;;;;;;4991485;28;20494;-55
2022/09/27 13:09:24;;;;;;;8.67;8.47;;;12.20;42.10;;;;;;4990177;28;20436;-54
2022/09/27 13:12:20;;;;;;;7.87;7.67;;;12.30;42.30;;;;;;4991205;28;20420;-60
2022/09/27 13:14:45;;;;;;;8.47;8.27;;;12.40;41.80;;;;;;4991672;28;20507;-53
2022/09/27 13:17:32;;;;;;;8.57;8.37;;;12.40;41.70;;;;;;4991215;28;20981;-47
2022/09/27 13:19:58;;;;;;;8.43;8.23;;;12.50;41.10;;;;;;4991251;28;20197;-51
2022/09/27 13:22:27;;;;;;;8.80;8.60;;;12.50;40.30;;;;;;4994481;28;20464;-52
2022/09/27 13:24:53;;;;;;;9.53;9.23;;;12.50;40.70;;;;;;4995170;28;20200;-48
2022/09/27 13:27:24;;;;;;;8.23;8.03;;;12.50;41.40;;;;;;4995650;28;20463;-46
2022/09/27 13:29:51;;;;;;;8.47;8.17;;;12.50;41.80;;;;;;4996058;28;20419;-46
2022/09/27 13:32:18;;;;;;;8.17;7.87;;;12.40;42.00;;;;;;4996280;28;20447;-49
2022/09/27 13:35:09;;;;;;;8.17;7.97;;;12.30;42.80;;;;;;4995859;28;20431;-49